sensor_id;sensor_type;location;lat;lon;timestamp;P1;durP1;ratioP1;P2;durP2;ratioP2
4460;SDS011;2243;48.812;9.232;2023-03-01T00:00:16;16.80;;;11.60;;
4460;SDS011;2243;48.812;9.232;2023-03-01T00:02:47;19.17;;;12.50;;
4460;SDS011;2243;48.812;9.232;2023-03-01T00:05:18;19.17;;;12.17;;
4460;SDS011;2243;48.812;9.232;2023-03-01T00:07:52;13.87;;;10.97;;
4460;SDS011;2243;48.812;9.232;2023-03-01T00:10:23;15.50;;;10.90;;
4460;SDS011;2243;48.812;9.232;2023-03-01T00:12:56;15.53;;;11.40;;
4460;SDS011;2243;48.812;9.232;2023-03-01T00:15:27;14.80;;;10.17;;
4460;SDS011;2243;48.812;9.232;2023-03-01T00:17:58;18.10;;;11.43;;
4460;SDS011;2243;48.812;9.232;2023-03-01T00:20:29;17.60;;;12.03;;
4460;SDS011;2243;48.812;9.232;2023-03-01T00:23:00;17.43;;;12.37;;
4460;SDS011;2243;48.812;9.232;2023-03-01T00:25:31;17.17;;;12.17;;
4460;SDS011;2243;48.812;9.232;2023-03-01T00:28:02;19.60;;;12.73;;
4460;SDS011;2243;48.812;9.232;2023-03-01T00:30:33;21.23;;;13.00;;
4460;SDS011;2243;48.812;9.232;2023-03-01T00:33:04;16.13;;;11.20;;
4460;SDS011;2243;48.812;9.232;2023-03-01T00:35:35;19.33;;;11.57;;
4460;SDS011;2243;48.812;9.232;2023-03-01T00:38:06;17.53;;;10.77;;
4460;SDS011;2243;48.812;9.232;2023-03-01T00:40:38;17.23;;;11.60;;
4460;SDS011;2243;48.812;9.232;2023-03-01T00:43:09;16.40;;;11.13;;
4460;SDS011;2243;48.812;9.232;2023-03-01T00:45:40;20.60;;;12.33;;
4460;SDS011;2243;48.812;9.232;2023-03-01T00:48:11;19.53;;;11.67;;
4460;SDS011;2243;48.812;9.232;2023-03-01T00:50:43;17.33;;;11.07;;
4460;SDS011;2243;48.812;9.232;2023-03-01T00:53:14;19.17;;;12.67;;
4460;SDS011;2243;48.812;9.232;2023-03-01T00:55:45;19.07;;;12.70;;
4460;SDS011;2243;48.812;9.232;2023-03-01T00:58:15;19.50;;;11.90;;
4460;SDS011;2243;48.812;9.232;2023-03-01T01:00:46;20.43;;;12.33;;
4460;SDS011;2243;48.812;9.232;2023-03-01T01:03:18;20.30;;;12.10;;
4460;SDS011;2243;48.812;9.232;2023-03-01T01:05:49;16.33;;;10.57;;
4460;SDS011;2243;48.812;9.232;2023-03-01T01:08:24;19.80;;;11.97;;
4460;SDS011;2243;48.812;9.232;2023-03-01T01:10:55;19.47;;;13.03;;
4460;SDS011;2243;48.812;9.232;2023-03-01T01:13:26;18.37;;;12.07;;
4460;SDS011;2243;48.812;9.232;2023-03-01T01:16:00;18.00;;;12.77;;
4460;SDS011;2243;48.812;9.232;2023-03-01T01:18:32;21.67;;;12.30;;
4460;SDS011;2243;48.812;9.232;2023-03-01T01:21:06;19.97;;;12.77;;
4460;SDS011;2243;48.812;9.232;2023-03-01T01:23:41;16.27;;;11.33;;
4460;SDS011;2243;48.812;9.232;2023-03-01T01:26:19;17.93;;;11.13;;
4460;SDS011;2243;48.812;9.232;2023-03-01T01:28:55;19.00;;;11.30;;
4460;SDS011;2243;48.812;9.232;2023-03-01T01:31:27;16.47;;;10.43;;
4460;SDS011;2243;48.812;9.232;2023-03-01T01:33:59;14.20;;;10.17;;
4460;SDS011;2243;48.812;9.232;2023-03-01T01:36:32;15.93;;;11.30;;
4460;SDS011;2243;48.812;9.232;2023-03-01T01:39:05;17.90;;;11.57;;
4460;SDS011;2243;48.812;9.232;2023-03-01T01:41:36;20.13;;;11.70;;
4460;SDS011;2243;48.812;9.232;2023-03-01T01:46:55;20.60;;;11.27;;
4460;SDS011;2243;48.812;9.232;2023-03-01T01:49:54;15.07;;;10.80;;
4460;SDS011;2243;48.812;9.232;2023-03-01T01:52:31;19.13;;;13.23;;
4460;SDS011;2243;48.812;9.232;2023-03-01T01:55:10;17.93;;;12.27;;
4460;SDS011;2243;48.812;9.232;2023-03-01T01:57:47;18.80;;;11.43;;
4460;SDS011;2243;48.812;9.232;2023-03-01T02:00:27;15.23;;;10.67;;
4460;SDS011;2243;48.812;9.232;2023-03-01T02:03:01;16.13;;;11.50;;
4460;SDS011;2243;48.812;9.232;2023-03-01T02:05:39;17.83;;;11.20;;
4460;SDS011;2243;48.812;9.232;2023-03-01T02:08:25;16.27;;;11.47;;
4460;SDS011;2243;48.812;9.232;2023-03-01T02:11:00;19.37;;;11.57;;
4460;SDS011;2243;48.812;9.232;2023-03-01T02:13:34;16.70;;;12.57;;
4460;SDS011;2243;48.812;9.232;2023-03-01T02:16:09;19.03;;;11.90;;
4460;SDS011;2243;48.812;9.232;2023-03-01T02:18:43;18.77;;;12.20;;
4460;SDS011;2243;48.812;9.232;2023-03-01T02:27:12;27.27;;;12.07;;
4460;SDS011;2243;48.812;9.232;2023-03-01T02:29:50;15.97;;;11.23;;
4460;SDS011;2243;48.812;9.232;2023-03-01T02:32:21;19.10;;;11.93;;
4460;SDS011;2243;48.812;9.232;2023-03-01T02:34:55;16.50;;;11.27;;
4460;SDS011;2243;48.812;9.232;2023-03-01T02:37:27;19.03;;;12.50;;
4460;SDS011;2243;48.812;9.232;2023-03-01T02:39:59;16.47;;;11.47;;
4460;SDS011;2243;48.812;9.232;2023-03-01T02:42:40;21.30;;;12.67;;
4460;SDS011;2243;48.812;9.232;2023-03-01T02:45:27;18.03;;;11.40;;
4460;SDS011;2243;48.812;9.232;2023-03-01T02:47:58;17.70;;;11.43;;
4460;SDS011;2243;48.812;9.232;2023-03-01T02:53:11;22.07;;;13.63;;
4460;SDS011;2243;48.812;9.232;2023-03-01T02:55:51;17.83;;;12.43;;
4460;SDS011;2243;48.812;9.232;2023-03-01T02:58:23;17.10;;;11.53;;
4460;SDS011;2243;48.812;9.232;2023-03-01T03:00:53;19.60;;;12.20;;
4460;SDS011;2243;48.812;9.232;2023-03-01T03:03:25;23.53;;;12.10;;
4460;SDS011;2243;48.812;9.232;2023-03-01T03:05:56;18.70;;;12.13;;
4460;SDS011;2243;48.812;9.232;2023-03-01T03:08:28;16.33;;;11.93;;
4460;SDS011;2243;48.812;9.232;2023-03-01T03:10:59;16.03;;;11.13;;
4460;SDS011;2243;48.812;9.232;2023-03-01T03:13:30;17.33;;;12.27;;
4460;SDS011;2243;48.812;9.232;2023-03-01T03:16:01;27.50;;;12.90;;
4460;SDS011;2243;48.812;9.232;2023-03-01T03:18:33;21.63;;;13.10;;
4460;SDS011;2243;48.812;9.232;2023-03-01T03:21:07;21.90;;;13.13;;
4460;SDS011;2243;48.812;9.232;2023-03-01T03:23:42;19.00;;;12.60;;
4460;SDS011;2243;48.812;9.232;2023-03-01T03:26:13;17.63;;;13.63;;
4460;SDS011;2243;48.812;9.232;2023-03-01T03:28:45;21.50;;;12.97;;
4460;SDS011;2243;48.812;9.232;2023-03-01T03:31:16;20.43;;;12.33;;
4460;SDS011;2243;48.812;9.232;2023-03-01T03:33:48;17.60;;;12.40;;
4460;SDS011;2243;48.812;9.232;2023-03-01T03:36:20;21.83;;;12.90;;
4460;SDS011;2243;48.812;9.232;2023-03-01T03:38:53;19.70;;;12.93;;
4460;SDS011;2243;48.812;9.232;2023-03-01T03:41:24;21.77;;;13.57;;
4460;SDS011;2243;48.812;9.232;2023-03-01T03:43:55;18.20;;;12.03;;
4460;SDS011;2243;48.812;9.232;2023-03-01T03:46:26;19.97;;;12.83;;
4460;SDS011;2243;48.812;9.232;2023-03-01T03:48:57;21.43;;;12.40;;
4460;SDS011;2243;48.812;9.232;2023-03-01T03:51:28;19.63;;;14.03;;
4460;SDS011;2243;48.812;9.232;2023-03-01T03:53:59;19.03;;;13.57;;
4460;SDS011;2243;48.812;9.232;2023-03-01T03:56:30;20.60;;;13.70;;
4460;SDS011;2243;48.812;9.232;2023-03-01T03:59:01;20.73;;;12.67;;
4460;SDS011;2243;48.812;9.232;2023-03-01T04:01:32;20.47;;;13.20;;
4460;SDS011;2243;48.812;9.232;2023-03-01T04:04:03;20.80;;;14.03;;
4460;SDS011;2243;48.812;9.232;2023-03-01T04:06:34;22.47;;;13.87;;
4460;SDS011;2243;48.812;9.232;2023-03-01T04:09:05;22.50;;;13.37;;
4460;SDS011;2243;48.812;9.232;2023-03-01T04:11:36;21.20;;;13.80;;
4460;SDS011;2243;48.812;9.232;2023-03-01T04:14:09;24.40;;;14.20;;
4460;SDS011;2243;48.812;9.232;2023-03-01T04:16:40;20.20;;;13.00;;
4460;SDS011;2243;48.812;9.232;2023-03-01T04:19:11;20.93;;;14.13;;
4460;SDS011;2243;48.812;9.232;2023-03-01T04:21:42;23.97;;;14.27;;
4460;SDS011;2243;48.812;9.232;2023-03-01T04:24:13;23.67;;;14.20;;
4460;SDS011;2243;48.812;9.232;2023-03-01T04:26:43;19.97;;;13.77;;
4460;SDS011;2243;48.812;9.232;2023-03-01T04:29:14;23.30;;;12.83;;
4460;SDS011;2243;48.812;9.232;2023-03-01T04:31:45;16.77;;;12.00;;
4460;SDS011;2243;48.812;9.232;2023-03-01T04:34:19;20.60;;;13.70;;
4460;SDS011;2243;48.812;9.232;2023-03-01T04:36:50;25.57;;;13.07;;
4460;SDS011;2243;48.812;9.232;2023-03-01T04:39:21;27.23;;;14.90;;
4460;SDS011;2243;48.812;9.232;2023-03-01T04:41:52;19.57;;;13.70;;
4460;SDS011;2243;48.812;9.232;2023-03-01T04:44:23;18.87;;;12.47;;
4460;SDS011;2243;48.812;9.232;2023-03-01T04:46:54;20.83;;;13.03;;
4460;SDS011;2243;48.812;9.232;2023-03-01T04:49:25;22.37;;;13.40;;
4460;SDS011;2243;48.812;9.232;2023-03-01T04:51:56;18.70;;;12.97;;
4460;SDS011;2243;48.812;9.232;2023-03-01T04:54:34;23.03;;;13.80;;
4460;SDS011;2243;48.812;9.232;2023-03-01T04:57:06;19.03;;;12.37;;
4460;SDS011;2243;48.812;9.232;2023-03-01T04:59:37;23.10;;;14.00;;
4460;SDS011;2243;48.812;9.232;2023-03-01T05:02:08;19.37;;;12.93;;
4460;SDS011;2243;48.812;9.232;2023-03-01T05:04:38;18.97;;;12.67;;
4460;SDS011;2243;48.812;9.232;2023-03-01T05:07:09;22.53;;;13.97;;
4460;SDS011;2243;48.812;9.232;2023-03-01T05:09:43;23.43;;;14.70;;
4460;SDS011;2243;48.812;9.232;2023-03-01T05:12:14;23.10;;;13.70;;
4460;SDS011;2243;48.812;9.232;2023-03-01T05:14:45;23.83;;;14.47;;
4460;SDS011;2243;48.812;9.232;2023-03-01T05:17:16;24.10;;;14.70;;
4460;SDS011;2243;48.812;9.232;2023-03-01T05:19:47;18.93;;;13.10;;
4460;SDS011;2243;48.812;9.232;2023-03-01T05:22:18;17.40;;;13.40;;
4460;SDS011;2243;48.812;9.232;2023-03-01T05:24:50;20.07;;;12.37;;
4460;SDS011;2243;48.812;9.232;2023-03-01T05:27:22;21.80;;;13.80;;
4460;SDS011;2243;48.812;9.232;2023-03-01T05:29:52;24.27;;;14.23;;
4460;SDS011;2243;48.812;9.232;2023-03-01T05:32:24;19.43;;;11.93;;
4460;SDS011;2243;48.812;9.232;2023-03-01T05:34:55;23.07;;;12.77;;
4460;SDS011;2243;48.812;9.232;2023-03-01T05:37:26;19.50;;;13.13;;
4460;SDS011;2243;48.812;9.232;2023-03-01T05:39:58;21.43;;;13.87;;
4460;SDS011;2243;48.812;9.232;2023-03-01T05:42:29;21.37;;;12.47;;
4460;SDS011;2243;48.812;9.232;2023-03-01T05:45:00;22.60;;;13.97;;
4460;SDS011;2243;48.812;9.232;2023-03-01T05:47:31;25.47;;;13.97;;
4460;SDS011;2243;48.812;9.232;2023-03-01T05:50:02;18.33;;;13.47;;
4460;SDS011;2243;48.812;9.232;2023-03-01T05:52:33;19.23;;;12.97;;
4460;SDS011;2243;48.812;9.232;2023-03-01T05:55:04;21.93;;;14.57;;
4460;SDS011;2243;48.812;9.232;2023-03-01T05:57:36;21.00;;;12.93;;
4460;SDS011;2243;48.812;9.232;2023-03-01T06:00:08;20.67;;;12.73;;
4460;SDS011;2243;48.812;9.232;2023-03-01T06:02:41;21.83;;;14.00;;
4460;SDS011;2243;48.812;9.232;2023-03-01T06:05:12;19.00;;;12.30;;
4460;SDS011;2243;48.812;9.232;2023-03-01T06:07:44;21.53;;;13.40;;
4460;SDS011;2243;48.812;9.232;2023-03-01T06:10:15;21.47;;;13.37;;
4460;SDS011;2243;48.812;9.232;2023-03-01T06:12:48;21.53;;;13.87;;
4460;SDS011;2243;48.812;9.232;2023-03-01T06:15:19;19.67;;;13.40;;
4460;SDS011;2243;48.812;9.232;2023-03-01T06:17:50;27.03;;;13.27;;
4460;SDS011;2243;48.812;9.232;2023-03-01T06:20:22;19.40;;;12.47;;
4460;SDS011;2243;48.812;9.232;2023-03-01T06:22:55;20.27;;;13.07;;
4460;SDS011;2243;48.812;9.232;2023-03-01T06:25:28;18.03;;;11.63;;
4460;SDS011;2243;48.812;9.232;2023-03-01T06:27:59;19.50;;;12.37;;
4460;SDS011;2243;48.812;9.232;2023-03-01T06:30:30;21.83;;;13.73;;
4460;SDS011;2243;48.812;9.232;2023-03-01T06:33:02;23.03;;;13.70;;
4460;SDS011;2243;48.812;9.232;2023-03-01T06:35:33;20.80;;;13.20;;
4460;SDS011;2243;48.812;9.232;2023-03-01T06:38:05;21.13;;;13.60;;
4460;SDS011;2243;48.812;9.232;2023-03-01T06:40:37;20.07;;;13.77;;
4460;SDS011;2243;48.812;9.232;2023-03-01T06:43:08;26.53;;;13.70;;
4460;SDS011;2243;48.812;9.232;2023-03-01T06:45:39;24.83;;;14.40;;
4460;SDS011;2243;48.812;9.232;2023-03-01T06:48:10;24.00;;;14.60;;
4460;SDS011;2243;48.812;9.232;2023-03-01T06:50:41;21.87;;;13.83;;
4460;SDS011;2243;48.812;9.232;2023-03-01T06:53:12;22.40;;;13.77;;
4460;SDS011;2243;48.812;9.232;2023-03-01T06:55:43;23.60;;;13.07;;
4460;SDS011;2243;48.812;9.232;2023-03-01T06:58:14;21.30;;;13.87;;
4460;SDS011;2243;48.812;9.232;2023-03-01T07:00:45;24.73;;;14.23;;
4460;SDS011;2243;48.812;9.232;2023-03-01T07:03:16;20.77;;;13.93;;
4460;SDS011;2243;48.812;9.232;2023-03-01T07:05:50;22.63;;;14.13;;
4460;SDS011;2243;48.812;9.232;2023-03-01T07:08:23;25.63;;;14.07;;
4460;SDS011;2243;48.812;9.232;2023-03-01T07:10:58;24.80;;;13.77;;
4460;SDS011;2243;48.812;9.232;2023-03-01T07:13:29;20.43;;;13.63;;
4460;SDS011;2243;48.812;9.232;2023-03-01T07:16:00;21.17;;;13.17;;
4460;SDS011;2243;48.812;9.232;2023-03-01T07:18:31;24.17;;;14.20;;
4460;SDS011;2243;48.812;9.232;2023-03-01T07:21:09;19.30;;;13.37;;
4460;SDS011;2243;48.812;9.232;2023-03-01T07:23:43;22.87;;;14.50;;
4460;SDS011;2243;48.812;9.232;2023-03-01T07:26:14;26.53;;;14.17;;
4460;SDS011;2243;48.812;9.232;2023-03-01T07:28:44;23.47;;;13.50;;
4460;SDS011;2243;48.812;9.232;2023-03-01T07:31:15;20.33;;;13.90;;
4460;SDS011;2243;48.812;9.232;2023-03-01T07:33:46;23.80;;;15.03;;
4460;SDS011;2243;48.812;9.232;2023-03-01T07:36:17;31.47;;;14.37;;
4460;SDS011;2243;48.812;9.232;2023-03-01T07:38:48;24.97;;;13.97;;
4460;SDS011;2243;48.812;9.232;2023-03-01T07:41:19;23.07;;;14.73;;
4460;SDS011;2243;48.812;9.232;2023-03-01T07:43:50;23.77;;;14.30;;
4460;SDS011;2243;48.812;9.232;2023-03-01T07:46:21;21.17;;;13.70;;
4460;SDS011;2243;48.812;9.232;2023-03-01T07:48:52;25.77;;;15.03;;
4460;SDS011;2243;48.812;9.232;2023-03-01T07:51:23;26.73;;;14.53;;
4460;SDS011;2243;48.812;9.232;2023-03-01T07:53:54;27.33;;;15.33;;
4460;SDS011;2243;48.812;9.232;2023-03-01T07:56:25;21.63;;;12.13;;
4460;SDS011;2243;48.812;9.232;2023-03-01T07:58:58;26.33;;;15.30;;
4460;SDS011;2243;48.812;9.232;2023-03-01T08:01:30;28.83;;;14.70;;
4460;SDS011;2243;48.812;9.232;2023-03-01T08:04:00;24.77;;;14.53;;
4460;SDS011;2243;48.812;9.232;2023-03-01T08:06:33;26.37;;;14.90;;
4460;SDS011;2243;48.812;9.232;2023-03-01T08:09:05;30.40;;;17.73;;
4460;SDS011;2243;48.812;9.232;2023-03-01T08:11:36;23.67;;;14.50;;
4460;SDS011;2243;48.812;9.232;2023-03-01T08:14:07;23.13;;;13.90;;
4460;SDS011;2243;48.812;9.232;2023-03-01T08:16:40;21.67;;;13.30;;
4460;SDS011;2243;48.812;9.232;2023-03-01T08:19:11;20.77;;;14.10;;
4460;SDS011;2243;48.812;9.232;2023-03-01T08:21:43;22.90;;;15.13;;
4460;SDS011;2243;48.812;9.232;2023-03-01T08:24:14;24.10;;;14.10;;
4460;SDS011;2243;48.812;9.232;2023-03-01T08:26:45;33.00;;;14.70;;
4460;SDS011;2243;48.812;9.232;2023-03-01T08:29:16;24.47;;;14.20;;
4460;SDS011;2243;48.812;9.232;2023-03-01T08:31:47;21.33;;;14.27;;
4460;SDS011;2243;48.812;9.232;2023-03-01T08:34:18;20.87;;;13.90;;
4460;SDS011;2243;48.812;9.232;2023-03-01T08:36:49;23.83;;;15.13;;
4460;SDS011;2243;48.812;9.232;2023-03-01T08:39:22;24.67;;;15.47;;
4460;SDS011;2243;48.812;9.232;2023-03-01T08:41:53;23.90;;;14.90;;
4460;SDS011;2243;48.812;9.232;2023-03-01T08:44:24;25.37;;;14.97;;
4460;SDS011;2243;48.812;9.232;2023-03-01T08:46:55;26.00;;;14.60;;
4460;SDS011;2243;48.812;9.232;2023-03-01T08:49:26;24.73;;;14.90;;
4460;SDS011;2243;48.812;9.232;2023-03-01T08:51:57;23.20;;;14.70;;
4460;SDS011;2243;48.812;9.232;2023-03-01T08:54:28;23.87;;;14.23;;
4460;SDS011;2243;48.812;9.232;2023-03-01T08:57:00;27.87;;;16.30;;
4460;SDS011;2243;48.812;9.232;2023-03-01T08:59:32;22.20;;;13.83;;
4460;SDS011;2243;48.812;9.232;2023-03-01T09:02:11;23.73;;;13.47;;
4460;SDS011;2243;48.812;9.232;2023-03-01T09:04:47;23.43;;;15.33;;
4460;SDS011;2243;48.812;9.232;2023-03-01T09:07:18;19.80;;;13.83;;
4460;SDS011;2243;48.812;9.232;2023-03-01T09:09:49;24.03;;;15.03;;
4460;SDS011;2243;48.812;9.232;2023-03-01T09:12:23;23.53;;;14.60;;
4460;SDS011;2243;48.812;9.232;2023-03-01T09:14:55;24.20;;;14.50;;
4460;SDS011;2243;48.812;9.232;2023-03-01T09:17:26;22.17;;;14.07;;
4460;SDS011;2243;48.812;9.232;2023-03-01T09:19:56;24.47;;;15.23;;
4460;SDS011;2243;48.812;9.232;2023-03-01T09:22:27;29.63;;;15.17;;
4460;SDS011;2243;48.812;9.232;2023-03-01T09:24:58;21.73;;;14.87;;
4460;SDS011;2243;48.812;9.232;2023-03-01T09:27:30;29.43;;;14.93;;
4460;SDS011;2243;48.812;9.232;2023-03-01T09:30:01;23.53;;;14.37;;
4460;SDS011;2243;48.812;9.232;2023-03-01T09:32:33;22.60;;;14.90;;
4460;SDS011;2243;48.812;9.232;2023-03-01T09:35:04;23.47;;;14.20;;
4460;SDS011;2243;48.812;9.232;2023-03-01T09:37:36;24.27;;;14.70;;
4460;SDS011;2243;48.812;9.232;2023-03-01T09:40:12;24.40;;;15.63;;
4460;SDS011;2243;48.812;9.232;2023-03-01T09:42:55;28.93;;;15.03;;
4460;SDS011;2243;48.812;9.232;2023-03-01T09:45:40;23.57;;;14.17;;
4460;SDS011;2243;48.812;9.232;2023-03-01T09:48:18;25.20;;;14.90;;
4460;SDS011;2243;48.812;9.232;2023-03-01T09:50:53;21.50;;;15.70;;
4460;SDS011;2243;48.812;9.232;2023-03-01T09:53:27;20.50;;;13.07;;
4460;SDS011;2243;48.812;9.232;2023-03-01T10:04:54;24.17;;;14.27;;
4460;SDS011;2243;48.812;9.232;2023-03-01T10:10:40;23.43;;;14.50;;
4460;SDS011;2243;48.812;9.232;2023-03-01T10:16:16;22.30;;;13.40;;
4460;SDS011;2243;48.812;9.232;2023-03-01T10:19:12;25.37;;;15.00;;
4460;SDS011;2243;48.812;9.232;2023-03-01T10:21:53;21.60;;;13.73;;
4460;SDS011;2243;48.812;9.232;2023-03-01T10:24:28;23.90;;;14.07;;
4460;SDS011;2243;48.812;9.232;2023-03-01T10:27:05;23.80;;;14.93;;
4460;SDS011;2243;48.812;9.232;2023-03-01T10:29:49;21.80;;;14.40;;
4460;SDS011;2243;48.812;9.232;2023-03-01T10:32:33;19.10;;;14.13;;
4460;SDS011;2243;48.812;9.232;2023-03-01T10:35:21;21.60;;;13.70;;
4460;SDS011;2243;48.812;9.232;2023-03-01T10:38:02;22.40;;;13.40;;
4460;SDS011;2243;48.812;9.232;2023-03-01T10:40:36;21.60;;;14.33;;
4460;SDS011;2243;48.812;9.232;2023-03-01T10:43:51;17.83;;;14.57;;
4460;SDS011;2243;48.812;9.232;2023-03-01T10:46:34;23.50;;;14.30;;
4460;SDS011;2243;48.812;9.232;2023-03-01T10:49:18;23.60;;;15.03;;
4460;SDS011;2243;48.812;9.232;2023-03-01T10:51:52;23.80;;;13.97;;
4460;SDS011;2243;48.812;9.232;2023-03-01T10:54:28;24.00;;;14.63;;
4460;SDS011;2243;48.812;9.232;2023-03-01T10:57:02;26.93;;;14.97;;
4460;SDS011;2243;48.812;9.232;2023-03-01T10:59:36;28.20;;;16.00;;
4460;SDS011;2243;48.812;9.232;2023-03-01T11:07:51;23.33;;;14.90;;
4460;SDS011;2243;48.812;9.232;2023-03-01T11:10:33;25.07;;;15.87;;
4460;SDS011;2243;48.812;9.232;2023-03-01T11:15:58;25.63;;;14.97;;
4460;SDS011;2243;48.812;9.232;2023-03-01T11:18:40;18.93;;;13.70;;
4460;SDS011;2243;48.812;9.232;2023-03-01T11:21:17;24.13;;;14.87;;
4460;SDS011;2243;48.812;9.232;2023-03-01T11:23:48;25.93;;;14.57;;
4460;SDS011;2243;48.812;9.232;2023-03-01T11:26:19;19.17;;;14.77;;
4460;SDS011;2243;48.812;9.232;2023-03-01T11:28:52;22.90;;;13.90;;
4460;SDS011;2243;48.812;9.232;2023-03-01T11:31:29;25.97;;;15.10;;
4460;SDS011;2243;48.812;9.232;2023-03-01T11:34:14;21.23;;;15.00;;
4460;SDS011;2243;48.812;9.232;2023-03-01T11:36:54;22.63;;;15.00;;
4460;SDS011;2243;48.812;9.232;2023-03-01T11:46:02;18.33;;;12.63;;
4460;SDS011;2243;48.812;9.232;2023-03-01T11:52:21;23.60;;;13.93;;
4460;SDS011;2243;48.812;9.232;2023-03-01T12:01:12;23.67;;;14.20;;
4460;SDS011;2243;48.812;9.232;2023-03-01T12:09:53;18.80;;;13.83;;
4460;SDS011;2243;48.812;9.232;2023-03-01T12:13:02;22.30;;;14.27;;
4460;SDS011;2243;48.812;9.232;2023-03-01T12:25:04;18.50;;;13.17;;
4460;SDS011;2243;48.812;9.232;2023-03-01T12:27:51;18.93;;;13.97;;
4460;SDS011;2243;48.812;9.232;2023-03-01T12:33:52;18.27;;;12.83;;
4460;SDS011;2243;48.812;9.232;2023-03-01T12:36:42;19.30;;;12.10;;
4460;SDS011;2243;48.812;9.232;2023-03-01T12:51:03;17.63;;;12.70;;
4460;SDS011;2243;48.812;9.232;2023-03-01T12:53:45;23.53;;;13.00;;
4460;SDS011;2243;48.812;9.232;2023-03-01T12:56:20;17.53;;;12.27;;
4460;SDS011;2243;48.812;9.232;2023-03-01T13:02:09;14.93;;;12.00;;
4460;SDS011;2243;48.812;9.232;2023-03-01T13:07:38;17.67;;;11.60;;
4460;SDS011;2243;48.812;9.232;2023-03-01T13:10:48;16.47;;;12.20;;
4460;SDS011;2243;48.812;9.232;2023-03-01T13:13:24;21.90;;;12.73;;
4460;SDS011;2243;48.812;9.232;2023-03-01T13:15:57;19.60;;;12.30;;
4460;SDS011;2243;48.812;9.232;2023-03-01T13:19:13;28.17;;;15.73;;
4460;SDS011;2243;48.812;9.232;2023-03-01T13:21:49;20.87;;;14.07;;
4460;SDS011;2243;48.812;9.232;2023-03-01T13:32:27;19.50;;;13.90;;
4460;SDS011;2243;48.812;9.232;2023-03-01T13:37:50;21.57;;;13.70;;
4460;SDS011;2243;48.812;9.232;2023-03-01T13:42:54;26.00;;;15.30;;
4460;SDS011;2243;48.812;9.232;2023-03-01T13:45:38;18.17;;;14.97;;
4460;SDS011;2243;48.812;9.232;2023-03-01T13:48:15;23.57;;;14.60;;
4460;SDS011;2243;48.812;9.232;2023-03-01T13:50:55;22.97;;;16.17;;
4460;SDS011;2243;48.812;9.232;2023-03-01T13:53:33;21.30;;;16.10;;
4460;SDS011;2243;48.812;9.232;2023-03-01T13:56:09;23.60;;;16.00;;
4460;SDS011;2243;48.812;9.232;2023-03-01T13:59:00;26.27;;;15.80;;
4460;SDS011;2243;48.812;9.232;2023-03-01T14:01:35;23.93;;;15.60;;
4460;SDS011;2243;48.812;9.232;2023-03-01T14:04:18;25.77;;;16.47;;
4460;SDS011;2243;48.812;9.232;2023-03-01T14:10:03;26.07;;;14.80;;
4460;SDS011;2243;48.812;9.232;2023-03-01T14:18:14;23.60;;;15.17;;
4460;SDS011;2243;48.812;9.232;2023-03-01T14:20:52;23.50;;;15.60;;
4460;SDS011;2243;48.812;9.232;2023-03-01T14:23:23;27.50;;;18.63;;
4460;SDS011;2243;48.812;9.232;2023-03-01T14:25:55;26.83;;;14.80;;
4460;SDS011;2243;48.812;9.232;2023-03-01T14:28:28;25.20;;;15.40;;
4460;SDS011;2243;48.812;9.232;2023-03-01T14:31:03;24.70;;;15.97;;
4460;SDS011;2243;48.812;9.232;2023-03-01T14:34:05;22.77;;;16.90;;
4460;SDS011;2243;48.812;9.232;2023-03-01T14:36:36;29.03;;;15.30;;
4460;SDS011;2243;48.812;9.232;2023-03-01T14:39:16;27.13;;;16.20;;
4460;SDS011;2243;48.812;9.232;2023-03-01T14:41:56;21.60;;;15.30;;
4460;SDS011;2243;48.812;9.232;2023-03-01T14:44:45;26.80;;;16.47;;
4460;SDS011;2243;48.812;9.232;2023-03-01T14:47:36;29.03;;;18.07;;
4460;SDS011;2243;48.812;9.232;2023-03-01T14:50:25;24.43;;;16.10;;
4460;SDS011;2243;48.812;9.232;2023-03-01T14:53:01;23.13;;;15.00;;
4460;SDS011;2243;48.812;9.232;2023-03-01T14:55:37;21.57;;;15.63;;
4460;SDS011;2243;48.812;9.232;2023-03-01T14:58:13;22.60;;;15.27;;
4460;SDS011;2243;48.812;9.232;2023-03-01T15:00:53;23.73;;;16.17;;
4460;SDS011;2243;48.812;9.232;2023-03-01T15:06:27;25.90;;;15.87;;
4460;SDS011;2243;48.812;9.232;2023-03-01T15:08:59;23.53;;;15.63;;
4460;SDS011;2243;48.812;9.232;2023-03-01T15:11:30;22.17;;;15.70;;
4460;SDS011;2243;48.812;9.232;2023-03-01T15:14:03;27.97;;;16.90;;
4460;SDS011;2243;48.812;9.232;2023-03-01T15:20:13;30.60;;;15.60;;
4460;SDS011;2243;48.812;9.232;2023-03-01T15:22:52;24.40;;;15.13;;
4460;SDS011;2243;48.812;9.232;2023-03-01T15:25:26;22.60;;;15.30;;
4460;SDS011;2243;48.812;9.232;2023-03-01T15:28:00;22.40;;;14.97;;
4460;SDS011;2243;48.812;9.232;2023-03-01T15:30:33;24.60;;;14.17;;
4460;SDS011;2243;48.812;9.232;2023-03-01T15:35:59;24.13;;;15.13;;
4460;SDS011;2243;48.812;9.232;2023-03-01T15:38:50;25.40;;;14.23;;
4460;SDS011;2243;48.812;9.232;2023-03-01T15:41:30;19.10;;;13.27;;
4460;SDS011;2243;48.812;9.232;2023-03-01T15:44:17;25.97;;;14.20;;
4460;SDS011;2243;48.812;9.232;2023-03-01T15:47:05;22.17;;;14.90;;
4460;SDS011;2243;48.812;9.232;2023-03-01T15:49:53;20.67;;;13.97;;
4460;SDS011;2243;48.812;9.232;2023-03-01T15:52:34;19.63;;;13.27;;
4460;SDS011;2243;48.812;9.232;2023-03-01T15:55:28;24.30;;;13.93;;
4460;SDS011;2243;48.812;9.232;2023-03-01T15:58:04;22.83;;;14.47;;
4460;SDS011;2243;48.812;9.232;2023-03-01T16:00:41;20.50;;;13.60;;
4460;SDS011;2243;48.812;9.232;2023-03-01T16:03:29;19.97;;;13.30;;
4460;SDS011;2243;48.812;9.232;2023-03-01T16:06:00;26.23;;;14.63;;
4460;SDS011;2243;48.812;9.232;2023-03-01T16:08:31;21.90;;;14.33;;
4460;SDS011;2243;48.812;9.232;2023-03-01T16:11:02;18.47;;;13.50;;
4460;SDS011;2243;48.812;9.232;2023-03-01T16:13:36;24.97;;;14.10;;
4460;SDS011;2243;48.812;9.232;2023-03-01T16:16:08;22.03;;;12.70;;
4460;SDS011;2243;48.812;9.232;2023-03-01T16:18:45;18.63;;;13.27;;
4460;SDS011;2243;48.812;9.232;2023-03-01T16:21:20;21.50;;;13.37;;
4460;SDS011;2243;48.812;9.232;2023-03-01T16:23:54;25.93;;;15.50;;
4460;SDS011;2243;48.812;9.232;2023-03-01T16:26:25;24.80;;;14.80;;
4460;SDS011;2243;48.812;9.232;2023-03-01T16:28:56;23.47;;;15.20;;
4460;SDS011;2243;48.812;9.232;2023-03-01T16:31:28;25.10;;;14.40;;
4460;SDS011;2243;48.812;9.232;2023-03-01T16:34:00;23.23;;;13.40;;
4460;SDS011;2243;48.812;9.232;2023-03-01T16:36:31;20.67;;;14.10;;
4460;SDS011;2243;48.812;9.232;2023-03-01T16:39:02;20.50;;;14.53;;
4460;SDS011;2243;48.812;9.232;2023-03-01T16:41:33;21.80;;;13.30;;
4460;SDS011;2243;48.812;9.232;2023-03-01T16:44:04;22.20;;;14.83;;
4460;SDS011;2243;48.812;9.232;2023-03-01T16:46:35;21.27;;;12.53;;
4460;SDS011;2243;48.812;9.232;2023-03-01T16:49:06;21.73;;;13.43;;
4460;SDS011;2243;48.812;9.232;2023-03-01T16:51:37;18.93;;;12.60;;
4460;SDS011;2243;48.812;9.232;2023-03-01T16:54:08;23.40;;;13.57;;
4460;SDS011;2243;48.812;9.232;2023-03-01T16:56:40;22.73;;;14.40;;
4460;SDS011;2243;48.812;9.232;2023-03-01T16:59:11;19.20;;;13.20;;
4460;SDS011;2243;48.812;9.232;2023-03-01T17:01:42;20.50;;;13.67;;
4460;SDS011;2243;48.812;9.232;2023-03-01T17:04:13;20.47;;;13.40;;
4460;SDS011;2243;48.812;9.232;2023-03-01T17:06:49;20.63;;;13.43;;
4460;SDS011;2243;48.812;9.232;2023-03-01T17:09:20;24.37;;;14.40;;
4460;SDS011;2243;48.812;9.232;2023-03-01T17:11:52;20.53;;;13.27;;
4460;SDS011;2243;48.812;9.232;2023-03-01T17:14:24;21.10;;;13.80;;
4460;SDS011;2243;48.812;9.232;2023-03-01T17:16:55;19.40;;;14.50;;
4460;SDS011;2243;48.812;9.232;2023-03-01T17:19:26;24.03;;;15.70;;
4460;SDS011;2243;48.812;9.232;2023-03-01T17:21:57;21.20;;;14.23;;
4460;SDS011;2243;48.812;9.232;2023-03-01T17:24:36;25.83;;;14.10;;
4460;SDS011;2243;48.812;9.232;2023-03-01T17:27:08;35.70;;;15.50;;
4460;SDS011;2243;48.812;9.232;2023-03-01T17:29:42;24.53;;;14.27;;